Time;durP1;ratioP1;P1;durP2;ratioP2;P2;SDS_P1;SDS_P2;PMS_P1;PMS_P2;Temp;Humidity;BMP_temperature;BMP_pressure;BME280_temperature;BME280_humidity;BME280_pressure;Samples;Min_cycle;Max_cycle;Signal;HPM_P1;HPM_P2
2021/05/10 00:00:03;;;;;;;;;;;21.40;39.40;;;;;;491204;241;1179;-73
2021/05/10 00:02:04;;;;;;;;;;;21.30;39.30;;;;;;490247;242;1202;-72
2021/05/10 00:04:05;;;;;;;;;;;21.30;39.30;;;;;;490237;241;1233;-72
2021/05/10 00:06:06;;;;;;;;;;;21.30;39.30;;;;;;487922;242;1138;-72
2021/05/10 00:08:08;;;;;;;;;;;21.30;39.30;;;;;;490098;243;964;-73
2021/05/10 00:10:09;;;;;;;;;;;21.30;39.20;;;;;;490138;242;1221;-73
2021/05/10 00:12:12;;;;;;;;;;;21.30;39.20;;;;;;490145;241;2199;-72
2021/05/10 00:14:12;;;;;;;;;;;21.30;39.10;;;;;;490996;242;1399;-72
2021/05/10 00:16:13;;;;;;;;;;;21.30;39.10;;;;;;491136;241;1279;-73
2021/05/10 00:18:14;;;;;;;;;;;21.30;38.90;;;;;;489256;242;1059;-72
2021/05/10 00:20:16;;;;;;;;;;;21.30;39.00;;;;;;488317;243;1063;-72
2021/05/10 00:22:19;;;;;;;;;;;21.30;39.00;;;;;;490228;241;1049;-73
2021/05/10 00:24:21;;;;;;;;;;;21.30;39.00;;;;;;488016;242;1155;-72
2021/05/10 00:26:22;;;;;;;;;;;21.30;39.00;;;;;;488400;243;1089;-73
2021/05/10 00:28:23;;;;;;;;;;;21.30;38.80;;;;;;490292;241;1201;-72
2021/05/10 00:30:25;;;;;;;;;;;21.40;39.00;;;;;;488058;242;1167;-72
2021/05/10 00:32:27;;;;;;;;;;;21.40;38.90;;;;;;487332;243;2155;-73
2021/05/10 00:34:28;;;;;;;;;;;21.50;38.80;;;;;;490039;243;1097;-72
2021/05/10 00:36:29;;;;;;;;;;;21.50;38.90;;;;;;489165;242;1143;-73
2021/05/10 00:38:32;;;;;;;;;;;21.40;39.00;;;;;;489969;243;1290;-73
2021/05/10 00:40:33;;;;;;;;;;;21.30;39.10;;;;;;489146;242;1035;-72
2021/05/10 00:42:35;;;;;;;;;;;21.30;39.30;;;;;;487347;243;1413;-72
2021/05/10 00:44:36;;;;;;;;;;;21.20;39.40;;;;;;490010;243;1045;-72
2021/05/10 00:46:38;;;;;;;;;;;21.20;39.50;;;;;;489177;242;1193;-72
2021/05/10 00:48:39;;;;;;;;;;;21.30;39.40;;;;;;487506;243;1091;-73
2021/05/10 00:50:40;;;;;;;;;;;21.20;39.40;;;;;;490526;239;1200;-72
2021/05/10 00:52:41;;;;;;;;;;;21.30;39.40;;;;;;490732;241;2109;-72
2021/05/10 00:54:43;;;;;;;;;;;21.30;39.40;;;;;;491239;241;1154;-72
2021/05/10 00:56:44;;;;;;;;;;;21.30;39.40;;;;;;490209;242;1228;-72
2021/05/10 00:58:45;;;;;;;;;;;21.40;39.40;;;;;;490257;241;994;-72
2021/05/10 01:00:47;;;;;;;;;;;21.40;39.40;;;;;;489026;242;1257;-73
2021/05/10 01:02:48;;;;;;;;;;;21.30;39.40;;;;;;490214;241;1030;-72
2021/05/10 01:04:49;;;;;;;;;;;21.40;39.40;;;;;;489964;239;1349;-73
2021/05/10 01:06:50;;;;;;;;;;;21.30;39.50;;;;;;489751;242;1223;-72
2021/05/10 01:08:52;;;;;;;;;;;21.30;39.60;;;;;;490708;242;1017;-73
2021/05/10 01:11:00;;;;;;;;;;;21.30;39.60;;;;;;489292;239;2183;-72
2021/05/10 01:13:01;;;;;;;;;;;21.40;39.60;;;;;;487494;243;1145;-72
2021/05/10 01:15:03;;;;;;;;;;;21.30;39.60;;;;;;487445;243;1056;-72
2021/05/10 01:17:04;;;;;;;;;;;21.30;39.60;;;;;;488590;243;1209;-73
2021/05/10 01:19:05;;;;;;;;;;;21.30;39.70;;;;;;490096;241;1417;-72
2021/05/10 01:21:06;;;;;;;;;;;21.30;39.60;;;;;;491170;242;1093;-72
2021/05/10 01:23:08;;;;;;;;;;;21.30;39.70;;;;;;491145;241;970;-73
2021/05/10 01:25:09;;;;;;;;;;;21.40;39.70;;;;;;489215;238;1179;-72
2021/05/10 01:27:11;;;;;;;;;;;21.30;39.70;;;;;;490004;243;1104;-73
2021/05/10 01:29:12;;;;;;;;;;;21.30;39.90;;;;;;490207;242;1096;-73
2021/05/10 01:31:15;;;;;;;;;;;21.30;40.00;;;;;;491555;241;2180;-73
2021/05/10 01:33:15;;;;;;;;;;;21.10;40.10;;;;;;489816;237;1435;-72
2021/05/10 01:35:16;;;;;;;;;;;21.10;40.10;;;;;;487906;242;1094;-73
2021/05/10 01:37:17;;;;;;;;;;;21.00;40.20;;;;;;490145;243;1486;-72
2021/05/10 01:39:18;;;;;;;;;;;21.10;40.30;;;;;;489198;242;1045;-73
2021/05/10 01:41:20;;;;;;;;;;;21.10;40.30;;;;;;490151;243;1108;-72
2021/05/10 01:43:21;;;;;;;;;;;21.10;40.30;;;;;;489213;242;1269;-72
2021/05/10 01:45:22;;;;;;;;;;;21.10;40.30;;;;;;487385;243;1032;-73
2021/05/10 01:47:24;;;;;;;;;;;21.00;40.30;;;;;;487441;243;1152;-72
2021/05/10 01:49:26;;;;;;;;;;;21.10;40.40;;;;;;490198;243;1091;-72
2021/05/10 01:51:27;;;;;;;;;;;21.10;40.30;;;;;;491026;242;2184;-72
2021/05/10 01:53:29;;;;;;;;;;;21.10;40.20;;;;;;490181;241;1114;-72
2021/05/10 01:55:30;;;;;;;;;;;21.20;40.20;;;;;;491109;242;980;-72
2021/05/10 01:57:33;;;;;;;;;;;21.20;40.20;;;;;;490293;238;1416;-72
2021/05/10 01:59:34;;;;;;;;;;;21.20;40.10;;;;;;488997;242;1081;-72
2021/05/10 02:01:37;;;;;;;;;;;21.20;40.20;;;;;;491094;241;1176;-73
2021/05/10 02:03:39;;;;;;;;;;;21.20;40.30;;;;;;490298;242;966;-72
2021/05/10 02:05:40;;;;;;;;;;;21.10;40.30;;;;;;490152;241;1051;-72
2021/05/10 02:07:41;;;;;;;;;;;21.10;40.40;;;;;;487995;242;998;-72
2021/05/10 02:09:42;;;;;;;;;;;21.10;40.40;;;;;;487416;243;1014;-72
2021/05/10 02:11:45;;;;;;;;;;;21.20;40.30;;;;;;488471;243;2194;-72
2021/05/10 02:13:46;;;;;;;;;;;21.20;40.40;;;;;;491161;238;1583;-72
2021/05/10 02:15:46;;;;;;;;;;;21.10;40.40;;;;;;489128;242;1490;-73
2021/05/10 02:17:48;;;;;;;;;;;21.10;40.40;;;;;;488586;239;1190;-72
2021/05/10 02:19:49;;;;;;;;;;;21.10;40.50;;;;;;491647;238;1438;-73
2021/05/10 02:21:50;;;;;;;;;;;21.10;40.50;;;;;;491521;241;1030;-72
2021/05/10 02:23:52;;;;;;;;;;;21.10;40.50;;;;;;490611;241;1323;-72
2021/05/10 02:25:53;;;;;;;;;;;21.00;40.50;;;;;;491089;241;1071;-72
2021/05/10 02:27:54;;;;;;;;;;;21.00;40.50;;;;;;490643;242;1059;-72
2021/05/10 02:29:55;;;;;;;;;;;21.10;40.40;;;;;;490259;242;1115;-73
2021/05/10 02:31:57;;;;;;;;;;;21.20;40.30;;;;;;490230;241;2180;-72
2021/05/10 02:34:00;;;;;;;;;;;21.00;40.60;;;;;;490696;242;1070;-73
2021/05/10 02:36:01;;;;;;;;;;;21.00;40.80;;;;;;489232;242;1043;-72
2021/05/10 02:38:02;;;;;;;;;;;21.00;40.90;;;;;;487481;243;1033;-72
2021/05/10 02:40:04;;;;;;;;;;;20.90;40.90;;;;;;487397;243;1048;-72
2021/05/10 02:42:05;;;;;;;;;;;21.00;40.90;;;;;;490142;243;1118;-72
2021/05/10 02:44:06;;;;;;;;;;;21.00;40.90;;;;;;489180;242;1009;-73
2021/05/10 02:46:08;;;;;;;;;;;21.00;40.80;;;;;;487434;240;1434;-73
2021/05/10 02:48:09;;;;;;;;;;;21.00;40.70;;;;;;488399;243;1215;-73
2021/05/10 02:50:10;;;;;;;;;;;21.00;40.70;;;;;;490611;241;1029;-72
2021/05/10 02:52:11;;;;;;;;;;;21.00;40.70;;;;;;490988;241;2183;-72
2021/05/10 02:54:13;;;;;;;;;;;21.00;40.70;;;;;;489229;239;1328;-72
2021/05/10 02:56:15;;;;;;;;;;;21.00;40.70;;;;;;488407;243;1246;-72
2021/05/10 02:58:16;;;;;;;;;;;21.00;40.80;;;;;;491217;241;1151;-72
2021/05/10 03:00:18;;;;;;;;;;;21.00;40.80;;;;;;490676;242;1154;-72
2021/05/10 03:02:20;;;;;;;;;;;21.00;40.90;;;;;;489178;242;1168;-72
2021/05/10 03:04:20;;;;;;;;;;;20.80;41.00;;;;;;487368;242;1432;-72
2021/05/10 03:06:22;;;;;;;;;;;20.90;41.00;;;;;;487345;243;1224;-73
2021/05/10 03:08:23;;;;;;;;;;;20.90;41.00;;;;;;490045;243;1113;-73
2021/05/10 03:10:24;;;;;;;;;;;20.90;41.10;;;;;;489135;242;1140;-73
2021/05/10 03:12:25;;;;;;;;;;;20.80;41.20;;;;;;488256;243;2135;-72
2021/05/10 03:14:32;;;;;;;;;;;20.80;41.20;;;;;;491555;241;1093;-72
2021/05/10 03:16:33;;;;;;;;;;;20.80;41.20;;;;;;490068;241;1265;-72
2021/05/10 03:18:34;;;;;;;;;;;20.90;41.20;;;;;;487960;242;1182;-72
2021/05/10 03:20:36;;;;;;;;;;;20.90;41.10;;;;;;490593;243;1006;-72
2021/05/10 03:22:37;;;;;;;;;;;20.90;41.00;;;;;;490749;241;1097;-73
2021/05/10 03:24:38;;;;;;;;;;;20.90;41.10;;;;;;490798;238;1562;-73
2021/05/10 03:26:39;;;;;;;;;;;20.90;41.10;;;;;;490190;241;1213;-73
2021/05/10 03:28:41;;;;;;;;;;;20.90;41.10;;;;;;490871;242;1099;-72
2021/05/10 03:30:42;;;;;;;;;;;20.90;41.20;;;;;;491189;242;1000;-73
2021/05/10 03:32:43;;;;;;;;;;;20.80;41.10;;;;;;490335;237;2161;-73
2021/05/10 03:34:52;;;;;;;;;;;20.80;41.30;;;;;;488039;239;1345;-72
2021/05/10 03:36:53;;;;;;;;;;;20.80;41.20;;;;;;488714;243;1156;-73
2021/05/10 03:38:55;;;;;;;;;;;20.90;41.10;;;;;;489984;241;1086;-73
2021/05/10 03:40:58;;;;;;;;;;;20.90;41.10;;;;;;487789;242;1026;-73
2021/05/10 03:42:59;;;;;;;;;;;20.90;41.10;;;;;;487447;243;1119;-73
2021/05/10 03:45:00;;;;;;;;;;;20.90;41.20;;;;;;487347;243;1043;-72
2021/05/10 03:47:02;;;;;;;;;;;20.80;41.20;;;;;;488663;241;1336;-72
2021/05/10 03:49:05;;;;;;;;;;;20.90;41.10;;;;;;491592;241;1170;-73
2021/05/10 03:51:07;;;;;;;;;;;20.90;41.30;;;;;;490052;241;1000;-72
2021/05/10 03:53:08;;;;;;;;;;;20.80;41.30;;;;;;487822;242;2148;-72
2021/05/10 03:55:10;;;;;;;;;;;20.60;41.70;;;;;;490291;243;1061;-72
2021/05/10 03:57:11;;;;;;;;;;;20.40;42.00;;;;;;489030;242;1023;-72
2021/05/10 03:59:12;;;;;;;;;;;20.30;42.30;;;;;;488907;239;1195;-73
2021/05/10 04:01:13;;;;;;;;;;;20.30;42.40;;;;;;490922;241;1235;-72
2021/05/10 04:03:16;;;;;;;;;;;20.30;42.40;;;;;;488974;242;1167;-72
2021/05/10 04:05:29;;;;;;;;;;;20.20;42.50;;;;;;488596;243;1386;-72
2021/05/10 04:07:36;;;;;;;;;;;20.20;42.70;;;;;;489097;240;1550;-72
2021/05/10 04:09:43;;;;;;;;;;;20.10;42.70;;;;;;490197;242;1337;-72
2021/05/10 04:13:59;;;;;;;;;;;20.10;42.90;;;;;;489415;243;1036;-72
2021/05/10 04:15:59;;;;;;;;;;;20.10;43.00;;;;;;487215;243;1480;-72
2021/05/10 04:18:01;;;;;;;;;;;20.10;42.90;;;;;;487622;243;1286;-72
2021/05/10 04:20:02;;;;;;;;;;;20.10;42.90;;;;;;490077;242;1041;-72
2021/05/10 04:22:04;;;;;;;;;;;20.10;42.80;;;;;;490855;242;1034;-72
2021/05/10 04:24:05;;;;;;;;;;;20.10;42.80;;;;;;490558;241;1250;-72
2021/05/10 04:26:06;;;;;;;;;;;20.10;42.80;;;;;;488299;242;1127;-72
2021/05/10 04:28:08;;;;;;;;;;;20.10;42.80;;;;;;487337;243;1176;-72
2021/05/10 04:30:09;;;;;;;;;;;20.10;42.90;;;;;;487326;240;1313;-72
2021/05/10 04:32:11;;;;;;;;;;;20.10;42.80;;;;;;487220;243;2482;-72
2021/05/10 04:34:12;;;;;;;;;;;20.10;42.70;;;;;;487610;243;1173;-72
2021/05/10 04:36:14;;;;;;;;;;;20.10;42.90;;;;;;491368;241;1199;-72
2021/05/10 04:38:15;;;;;;;;;;;20.00;42.90;;;;;;490336;241;1040;-72
2021/05/10 04:40:16;;;;;;;;;;;20.10;42.90;;;;;;488356;241;1165;-72
2021/05/10 04:42:17;;;;;;;;;;;20.10;42.80;;;;;;487273;243;1073;-72
2021/05/10 04:44:19;;;;;;;;;;;20.10;42.60;;;;;;487276;243;1173;-72
2021/05/10 04:46:20;;;;;;;;;;;20.10;42.60;;;;;;487199;239;1145;-73
2021/05/10 04:48:22;;;;;;;;;;;20.10;42.40;;;;;;487251;243;1117;-72
2021/05/10 04:50:24;;;;;;;;;;;20.10;42.30;;;;;;487285;243;1240;-72
2021/05/10 04:52:25;;;;;;;;;;;20.10;42.30;;;;;;489592;243;2204;-72
2021/05/10 04:54:28;;;;;;;;;;;20.10;42.30;;;;;;490643;242;1096;-72
2021/05/10 04:56:29;;;;;;;;;;;20.10;42.20;;;;;;489272;242;1249;-72
2021/05/10 04:58:30;;;;;;;;;;;20.20;42.00;;;;;;489548;243;1061;-72
2021/05/10 05:00:32;;;;;;;;;;;20.10;42.00;;;;;;489328;242;1097;-72
2021/05/10 05:02:33;;;;;;;;;;;20.10;41.90;;;;;;487496;243;1292;-72
2021/05/10 05:04:34;;;;;;;;;;;20.10;41.90;;;;;;490548;241;1247;-72
2021/05/10 05:06:36;;;;;;;;;;;20.10;41.90;;;;;;489543;242;1127;-72
2021/05/10 05:08:37;;;;;;;;;;;20.10;41.90;;;;;;489472;242;1023;-72
2021/05/10 05:10:38;;;;;;;;;;;20.10;41.90;;;;;;489542;242;1055;-72
2021/05/10 05:12:40;;;;;;;;;;;20.10;41.90;;;;;;488001;242;2194;-72
2021/05/10 05:14:41;;;;;;;;;;;20.10;41.90;;;;;;487084;243;1079;-72
2021/05/10 05:16:42;;;;;;;;;;;20.10;42.00;;;;;;487147;243;1142;-72
2021/05/10 05:18:43;;;;;;;;;;;20.10;42.00;;;;;;489504;243;1140;-72
2021/05/10 05:20:45;;;;;;;;;;;20.00;42.10;;;;;;489621;242;1046;-72
2021/05/10 05:22:47;;;;;;;;;;;20.00;42.20;;;;;;490254;241;1065;-72
2021/05/10 05:24:50;;;;;;;;;;;20.00;42.20;;;;;;490354;239;1297;-72
2021/05/10 05:26:54;;;;;;;;;;;20.00;42.20;;;;;;489059;242;1052;-72
2021/05/10 05:29:00;;;;;;;;;;;20.00;42.10;;;;;;489828;243;1043;-72
2021/05/10 05:31:04;;;;;;;;;;;20.00;42.00;;;;;;490925;237;1311;-73
2021/05/10 05:33:05;;;;;;;;;;;20.10;42.00;;;;;;489685;241;2185;-72
2021/05/10 05:35:06;;;;;;;;;;;20.10;42.00;;;;;;489971;241;1210;-72
2021/05/10 05:37:08;;;;;;;;;;;20.00;42.00;;;;;;490726;242;1037;-72
2021/05/10 05:39:09;;;;;;;;;;;20.00;42.00;;;;;;490887;241;1096;-72
2021/05/10 05:41:11;;;;;;;;;;;20.10;41.90;;;;;;489652;242;1020;-72
2021/05/10 05:43:14;;;;;;;;;;;20.00;42.00;;;;;;490466;238;2010;-72
2021/05/10 05:45:15;;;;;;;;;;;20.00;42.00;;;;;;490002;241;1065;-72
2021/05/10 05:47:24;;;;;;;;;;;20.10;42.00;;;;;;490511;242;1107;-72
2021/05/10 05:49:20;;;;;;;;;;;20.00;42.10;;;;;;488746;241;1389;-72
2021/05/10 05:51:21;;;;;;;;;;;20.00;42.00;;;;;;486779;243;1053;-72
2021/05/10 05:53:22;;;;;;;;;;;20.00;42.00;;;;;;487060;243;2182;-72
2021/05/10 05:55:25;;;;;;;;;;;20.00;42.10;;;;;;487200;239;1271;-72
2021/05/10 05:57:26;;;;;;;;;;;20.00;42.20;;;;;;487791;243;1213;-72
2021/05/10 05:59:27;;;;;;;;;;;20.00;42.20;;;;;;489740;238;1284;-72
2021/05/10 06:01:28;;;;;;;;;;;19.90;42.30;;;;;;490456;242;1138;-72
2021/05/10 06:03:30;;;;;;;;;;;20.00;42.30;;;;;;489777;242;1052;-72
2021/05/10 06:05:31;;;;;;;;;;;20.10;42.20;;;;;;490316;241;1441;-72
2021/05/10 06:07:32;;;;;;;;;;;20.10;42.20;;;;;;489960;238;1430;-72
2021/05/10 06:09:36;;;;;;;;;;;20.10;42.20;;;;;;487540;238;1218;-72
2021/05/10 06:11:37;;;;;;;;;;;20.10;42.20;;;;;;486997;243;1178;-72
2021/05/10 06:13:39;;;;;;;;;;;20.10;42.20;;;;;;486962;243;2195;-72
2021/05/10 06:15:40;;;;;;;;;;;20.10;42.20;;;;;;486872;240;1276;-72
2021/05/10 06:17:41;;;;;;;;;;;20.10;42.30;;;;;;486970;240;1247;-72
2021/05/10 06:19:42;;;;;;;;;;;20.00;42.40;;;;;;487838;241;1878;-72
2021/05/10 06:21:45;;;;;;;;;;;20.00;42.40;;;;;;489814;241;1085;-72
2021/05/10 06:23:46;;;;;;;;;;;20.10;42.40;;;;;;487659;242;1082;-72
2021/05/10 06:25:48;;;;;;;;;;;20.10;42.40;;;;;;489824;243;1194;-72
2021/05/10 06:27:50;;;;;;;;;;;20.10;42.40;;;;;;489847;241;1274;-72
2021/05/10 06:29:50;;;;;;;;;;;20.10;42.30;;;;;;488331;242;1308;-72
2021/05/10 06:31:51;;;;;;;;;;;20.10;42.30;;;;;;490662;241;1075;-73
2021/05/10 06:33:54;;;;;;;;;;;20.20;42.30;;;;;;490203;242;2144;-72
2021/05/10 06:35:58;;;;;;;;;;;20.10;42.40;;;;;;490219;242;1398;-72
2021/05/10 06:37:59;;;;;;;;;;;20.20;42.40;;;;;;490184;242;1263;-72
2021/05/10 06:40:03;;;;;;;;;;;20.10;42.50;;;;;;490235;242;1076;-72
2021/05/10 06:42:05;;;;;;;;;;;20.10;42.60;;;;;;488736;242;1057;-72
2021/05/10 06:44:06;;;;;;;;;;;20.30;42.40;;;;;;486838;240;1330;-72
2021/05/10 06:46:07;;;;;;;;;;;20.20;42.40;;;;;;486622;243;1163;-72
2021/05/10 06:48:09;;;;;;;;;;;20.30;42.50;;;;;;486856;243;1315;-72
2021/05/10 06:50:10;;;;;;;;;;;20.30;42.60;;;;;;486818;240;1336;-72
2021/05/10 06:52:11;;;;;;;;;;;20.30;42.60;;;;;;487617;243;1053;-72
2021/05/10 06:54:12;;;;;;;;;;;20.30;42.70;;;;;;490510;241;2180;-72
2021/05/10 06:56:14;;;;;;;;;;;20.40;42.60;;;;;;490382;242;1194;-72
2021/05/10 06:58:15;;;;;;;;;;;20.40;42.80;;;;;;490771;238;1350;-72
2021/05/10 07:00:16;;;;;;;;;;;20.40;42.80;;;;;;489631;242;1119;-72
2021/05/10 07:02:19;;;;;;;;;;;20.40;42.80;;;;;;489681;241;1175;-72
2021/05/10 07:04:21;;;;;;;;;;;20.50;42.80;;;;;;487772;242;1269;-72
2021/05/10 07:06:23;;;;;;;;;;;20.50;42.80;;;;;;488284;242;1192;-72
2021/05/10 07:08:24;;;;;;;;;;;20.40;42.80;;;;;;488934;242;1135;-72
2021/05/10 07:10:26;;;;;;;;;;;20.40;43.00;;;;;;488345;242;1149;-72
2021/05/10 07:12:30;;;;;;;;;;;20.40;43.00;;;;;;488865;241;1112;-72
2021/05/10 07:14:31;;;;;;;;;;;20.40;43.10;;;;;;488531;241;2192;-72
2021/05/10 07:16:33;;;;;;;;;;;20.40;43.10;;;;;;488441;241;1066;-72
2021/05/10 07:18:34;;;;;;;;;;;20.40;43.10;;;;;;488133;242;1281;-72
2021/05/10 07:20:37;;;;;;;;;;;20.50;43.10;;;;;;488678;241;1029;-72
2021/05/10 07:22:40;;;;;;;;;;;20.50;43.10;;;;;;488420;242;1031;-72
2021/05/10 07:24:41;;;;;;;;;;;20.50;43.10;;;;;;488450;240;1102;-72
2021/05/10 07:26:42;;;;;;;;;;;20.50;43.10;;;;;;488457;242;1098;-72
2021/05/10 07:28:43;;;;;;;;;;;20.60;43.00;;;;;;488429;242;1130;-72
2021/05/10 07:30:45;;;;;;;;;;;20.50;43.10;;;;;;488761;242;1090;-72
2021/05/10 07:32:46;;;;;;;;;;;20.50;43.10;;;;;;488138;242;1131;-72
2021/05/10 07:34:47;;;;;;;;;;;20.50;43.20;;;;;;488874;242;2186;-72
2021/05/10 07:36:48;;;;;;;;;;;20.50;43.40;;;;;;488290;242;1173;-72
2021/05/10 07:38:50;;;;;;;;;;;20.50;43.50;;;;;;488588;243;1238;-72
2021/05/10 07:40:52;;;;;;;;;;;20.40;43.60;;;;;;488368;243;1151;-72
2021/05/10 07:42:53;;;;;;;;;;;20.40;43.70;;;;;;488722;241;1219;-72
2021/05/10 07:44:54;;;;;;;;;;;20.40;43.90;;;;;;488501;241;1081;-72
2021/05/10 07:46:55;;;;;;;;;;;20.50;43.90;;;;;;488591;242;1229;-72
2021/05/10 07:48:57;;;;;;;;;;;20.60;43.80;;;;;;488323;239;1320;-72
2021/05/10 07:50:58;;;;;;;;;;;20.60;43.80;;;;;;488355;239;1326;-72
2021/05/10 07:52:59;;;;;;;;;;;20.60;43.80;;;;;;488241;243;1188;-72
2021/05/10 07:55:00;;;;;;;;;;;20.60;43.90;;;;;;488892;242;2174;-72
2021/05/10 07:57:02;;;;;;;;;;;20.50;44.00;;;;;;488537;243;1497;-72
2021/05/10 07:59:08;;;;;;;;;;;20.40;44.30;;;;;;488894;242;1063;-72
2021/05/10 08:01:04;;;;;;;;;;;20.50;44.50;;;;;;488895;240;1411;-72
2021/05/10 08:03:07;;;;;;;;;;;20.40;44.50;;;;;;488670;242;1049;-72
2021/05/10 08:05:08;;;;;;;;;;;20.50;44.40;;;;;;487790;243;1315;-72
2021/05/10 08:07:09;;;;;;;;;;;20.60;44.30;;;;;;488636;241;1299;-72
2021/05/10 08:09:10;;;;;;;;;;;20.60;44.20;;;;;;488511;241;1184;-72
2021/05/10 08:11:12;;;;;;;;;;;20.70;44.10;;;;;;488247;241;1104;-72
2021/05/10 08:13:14;;;;;;;;;;;20.70;43.80;;;;;;488475;242;2138;-72
2021/05/10 08:15:16;;;;;;;;;;;20.70;43.70;;;;;;487985;242;1041;-72
2021/05/10 08:17:19;;;;;;;;;;;20.70;43.80;;;;;;488609;241;1134;-72
2021/05/10 08:19:20;;;;;;;;;;;20.60;43.80;;;;;;488553;242;1116;-72
2021/05/10 08:21:21;;;;;;;;;;;20.60;43.90;;;;;;488443;242;1134;-72
2021/05/10 08:23:26;;;;;;;;;;;20.60;43.80;;;;;;489006;238;1177;-72
2021/05/10 08:25:27;;;;;;;;;;;20.70;43.80;;;;;;488206;241;1195;-72
2021/05/10 08:27:28;;;;;;;;;;;20.70;43.40;;;;;;488679;243;1250;-72
2021/05/10 08:29:29;;;;;;;;;;;20.90;43.00;;;;;;488364;242;1140;-72
2021/05/10 08:31:31;;;;;;;;;;;20.80;43.00;;;;;;488677;242;1185;-72
2021/05/10 08:33:32;;;;;;;;;;;20.80;43.20;;;;;;488708;243;2185;-72
2021/05/10 08:35:33;;;;;;;;;;;20.70;43.30;;;;;;488667;242;1232;-72
2021/05/10 08:37:35;;;;;;;;;;;20.60;43.50;;;;;;488506;241;1200;-72
2021/05/10 08:39:36;;;;;;;;;;;20.60;43.60;;;;;;488571;241;1363;-72
2021/05/10 08:41:37;;;;;;;;;;;20.50;43.50;;;;;;488626;241;1225;-72
2021/05/10 08:43:38;;;;;;;;;;;20.60;43.40;;;;;;488949;240;1136;-72
2021/05/10 08:45:40;;;;;;;;;;;20.60;43.60;;;;;;488258;241;1254;-72
2021/05/10 08:47:41;;;;;;;;;;;20.60;43.50;;;;;;488671;242;1192;-72
2021/05/10 08:49:42;;;;;;;;;;;20.70;43.40;;;;;;487871;241;1139;-72
2021/05/10 08:51:44;;;;;;;;;;;20.70;43.50;;;;;;487890;242;1273;-72
2021/05/10 08:53:45;;;;;;;;;;;20.70;43.40;;;;;;489467;242;2181;-72
2021/05/10 08:55:46;;;;;;;;;;;20.70;43.20;;;;;;490076;239;1337;-72
2021/05/10 08:57:47;;;;;;;;;;;20.70;43.20;;;;;;491398;241;1113;-73
2021/05/10 08:59:49;;;;;;;;;;;20.70;43.10;;;;;;490443;241;1302;-72
2021/05/10 09:01:50;;;;;;;;;;;20.70;43.20;;;;;;488511;242;1253;-72
2021/05/10 09:03:51;;;;;;;;;;;20.90;43.00;;;;;;487695;243;1243;-73
2021/05/10 09:05:56;;;;;;;;;;;21.00;42.70;;;;;;490411;241;1229;-72
2021/05/10 09:07:54;;;;;;;;;;;21.10;42.50;;;;;;489565;241;1201;-72
2021/05/10 09:09:56;;;;;;;;;;;21.10;42.40;;;;;;489450;239;1238;-72
2021/05/10 09:11:56;;;;;;;;;;;21.10;42.40;;;;;;489299;241;1272;-72
2021/05/10 09:13:58;;;;;;;;;;;21.10;42.40;;;;;;488631;242;2175;-72
2021/05/10 09:15:59;;;;;;;;;;;21.00;42.60;;;;;;489595;241;1362;-73
2021/05/10 09:18:01;;;;;;;;;;;21.00;42.70;;;;;;487281;242;1216;-72
2021/05/10 09:20:02;;;;;;;;;;;21.00;42.80;;;;;;487143;243;1069;-72
2021/05/10 09:22:05;;;;;;;;;;;21.10;42.80;;;;;;487417;243;1294;-72
2021/05/10 09:24:06;;;;;;;;;;;21.10;42.50;;;;;;489684;242;1255;-73
2021/05/10 09:26:08;;;;;;;;;;;21.20;42.50;;;;;;490775;241;1141;-72
2021/05/10 09:28:09;;;;;;;;;;;21.20;42.50;;;;;;489485;241;1109;-72
2021/05/10 09:30:10;;;;;;;;;;;21.20;42.20;;;;;;488076;242;1124;-72
2021/05/10 09:32:12;;;;;;;;;;;21.20;42.30;;;;;;489541;241;1154;-72
2021/05/10 09:34:13;;;;;;;;;;;21.10;42.30;;;;;;489951;241;2222;-72
2021/05/10 09:36:15;;;;;;;;;;;21.20;42.30;;;;;;488934;241;1142;-72
2021/05/10 09:38:16;;;;;;;;;;;21.20;42.30;;;;;;488936;242;1146;-72
2021/05/10 09:40:17;;;;;;;;;;;21.10;42.30;;;;;;488397;241;1276;-72
2021/05/10 09:42:18;;;;;;;;;;;21.10;42.30;;;;;;488267;242;1277;-72
2021/05/10 09:44:21;;;;;;;;;;;21.10;42.30;;;;;;488341;242;1490;-72
2021/05/10 09:46:22;;;;;;;;;;;21.10;42.30;;;;;;488699;241;1169;-72
2021/05/10 09:48:25;;;;;;;;;;;21.20;42.30;;;;;;488530;241;1224;-73
2021/05/10 09:50:25;;;;;;;;;;;21.20;42.30;;;;;;488275;241;1320;-72
2021/05/10 09:52:27;;;;;;;;;;;21.20;42.40;;;;;;488621;238;1271;-72
2021/05/10 09:54:29;;;;;;;;;;;21.20;42.30;;;;;;488507;242;2190;-72
2021/05/10 09:56:29;;;;;;;;;;;21.30;42.10;;;;;;488467;242;1408;-73
2021/05/10 09:58:30;;;;;;;;;;;21.30;42.10;;;;;;488464;241;1113;-72
2021/05/10 10:00:31;;;;;;;;;;;21.30;42.30;;;;;;488509;242;1125;-72
2021/05/10 10:02:33;;;;;;;;;;;21.20;42.20;;;;;;488267;243;1248;-72
2021/05/10 10:04:34;;;;;;;;;;;21.20;42.30;;;;;;488425;243;1160;-72
2021/05/10 10:06:35;;;;;;;;;;;21.30;42.30;;;;;;488652;243;1468;-72
2021/05/10 10:08:36;;;;;;;;;;;21.20;42.10;;;;;;488289;242;1191;-72
2021/05/10 10:10:38;;;;;;;;;;;21.30;42.10;;;;;;488129;243;1046;-72
2021/05/10 10:12:39;;;;;;;;;;;21.20;42.10;;;;;;488648;241;1098;-72
2021/05/10 10:14:40;;;;;;;;;;;21.30;42.00;;;;;;488099;241;2178;-72
2021/05/10 10:16:41;;;;;;;;;;;21.30;41.90;;;;;;488009;241;1042;-72
2021/05/10 10:18:43;;;;;;;;;;;21.40;41.90;;;;;;488138;243;1048;-72
2021/05/10 10:20:44;;;;;;;;;;;21.30;41.90;;;;;;488680;242;1336;-73
2021/05/10 10:22:45;;;;;;;;;;;21.40;41.90;;;;;;488452;241;1409;-72
2021/05/10 10:24:47;;;;;;;;;;;21.30;41.80;;;;;;488467;241;1093;-72
2021/05/10 10:26:49;;;;;;;;;;;21.40;41.80;;;;;;488957;242;1031;-72
2021/05/10 10:28:49;;;;;;;;;;;21.40;42.00;;;;;;488611;241;1363;-72
2021/05/10 10:30:51;;;;;;;;;;;21.40;42.00;;;;;;488252;242;1145;-73
2021/05/10 10:32:52;;;;;;;;;;;21.40;42.10;;;;;;488483;242;1098;-72
2021/05/10 10:34:54;;;;;;;;;;;21.40;42.10;;;;;;488546;242;2189;-72
2021/05/10 10:36:59;;;;;;;;;;;21.40;42.10;;;;;;488340;243;1168;-73
2021/05/10 10:38:59;;;;;;;;;;;21.40;42.30;;;;;;488144;242;1535;-73
2021/05/10 10:41:01;;;;;;;;;;;21.40;42.30;;;;;;488464;243;1195;-72
2021/05/10 10:43:02;;;;;;;;;;;21.50;42.30;;;;;;488512;239;1433;-73
2021/05/10 10:45:03;;;;;;;;;;;21.50;42.30;;;;;;488338;242;1277;-72
2021/05/10 10:47:05;;;;;;;;;;;21.50;42.10;;;;;;488195;242;1225;-72
2021/05/10 10:49:06;;;;;;;;;;;21.50;42.00;;;;;;488384;242;1287;-72
2021/05/10 10:51:08;;;;;;;;;;;21.50;42.10;;;;;;487882;241;1166;-72
2021/05/10 10:53:10;;;;;;;;;;;21.50;42.20;;;;;;488476;241;1120;-72
2021/05/10 10:55:14;;;;;;;;;;;21.40;42.20;;;;;;488603;242;2464;-72
2021/05/10 10:57:15;;;;;;;;;;;21.40;42.30;;;;;;488372;242;1262;-72
2021/05/10 10:59:16;;;;;;;;;;;21.40;42.30;;;;;;488708;237;1236;-72
2021/05/10 11:01:22;;;;;;;;;;;21.40;42.30;;;;;;488521;242;1045;-72
2021/05/10 11:03:21;;;;;;;;;;;21.40;42.30;;;;;;488515;241;1278;-73
2021/05/10 11:05:23;;;;;;;;;;;21.40;42.30;;;;;;488384;241;1272;-73
2021/05/10 11:07:24;;;;;;;;;;;21.40;42.30;;;;;;488750;242;1134;-73
2021/05/10 11:09:25;;;;;;;;;;;21.50;42.30;;;;;;488415;242;1230;-73
2021/05/10 11:11:27;;;;;;;;;;;21.50;42.20;;;;;;488319;242;1104;-72
2021/05/10 11:13:29;;;;;;;;;;;21.50;42.40;;;;;;488386;242;1094;-74
2021/05/10 11:15:30;;;;;;;;;;;21.50;42.30;;;;;;488409;239;2185;-74
2021/05/10 11:17:31;;;;;;;;;;;21.50;42.40;;;;;;488610;241;1287;-74
2021/05/10 11:19:33;;;;;;;;;;;21.50;42.20;;;;;;488712;242;1345;-74
2021/05/10 11:21:34;;;;;;;;;;;21.40;42.40;;;;;;488173;240;1355;-73
2021/05/10 11:23:36;;;;;;;;;;;21.40;42.50;;;;;;488216;243;1087;-74
2021/05/10 11:25:38;;;;;;;;;;;21.40;42.50;;;;;;488798;243;1205;-74
2021/05/10 11:27:38;;;;;;;;;;;21.30;42.50;;;;;;488696;237;1451;-74
2021/05/10 11:29:41;;;;;;;;;;;21.40;42.50;;;;;;488219;242;1012;-74
2021/05/10 11:31:42;;;;;;;;;;;21.30;42.50;;;;;;487970;242;1492;-74
2021/05/10 11:33:43;;;;;;;;;;;21.30;42.50;;;;;;488619;242;1122;-74
2021/05/10 11:35:44;;;;;;;;;;;21.30;42.60;;;;;;488321;242;2240;-74
2021/05/10 11:37:47;;;;;;;;;;;21.40;42.40;;;;;;488864;242;1255;-74
2021/05/10 11:39:47;;;;;;;;;;;21.40;42.20;;;;;;488987;240;1401;-74
2021/05/10 11:41:48;;;;;;;;;;;21.50;42.20;;;;;;488745;240;1343;-74
2021/05/10 11:43:49;;;;;;;;;;;21.50;42.00;;;;;;488806;240;1105;-74
2021/05/10 11:45:52;;;;;;;;;;;21.40;42.20;;;;;;488658;242;1039;-74
2021/05/10 11:47:55;;;;;;;;;;;21.40;42.10;;;;;;488706;239;1323;-74
2021/05/10 11:49:53;;;;;;;;;;;21.40;42.10;;;;;;488229;242;1426;-74
2021/05/10 11:51:55;;;;;;;;;;;21.40;42.10;;;;;;488357;242;980;-74
2021/05/10 11:53:56;;;;;;;;;;;21.20;42.30;;;;;;488395;241;1336;-74
2021/05/10 11:55:59;;;;;;;;;;;21.20;42.50;;;;;;487793;243;2190;-74
2021/05/10 11:58:02;;;;;;;;;;;21.20;42.50;;;;;;489574;241;1483;-74
2021/05/10 12:00:05;;;;;;;;;;;21.30;42.30;;;;;;489058;242;1395;-74